sensor_id;sensor_type;location;lat;lon;timestamp;temperature;humidity
28524;DHT22;15734;50.904;6.922;2023-03-01T00:00:41;-0.10;99.90
28524;DHT22;15734;50.904;6.922;2023-03-01T00:03:06;0.00;99.90
28524;DHT22;15734;50.904;6.922;2023-03-01T00:05:32;0.10;99.90
28524;DHT22;15734;50.904;6.922;2023-03-01T00:07:58;0.10;99.90
28524;DHT22;15734;50.904;6.922;2023-03-01T00:10:23;0.10;99.90
28524;DHT22;15734;50.904;6.922;2023-03-01T00:12:48;0.20;99.90
28524;DHT22;15734;50.904;6.922;2023-03-01T00:15:14;0.30;99.90
28524;DHT22;15734;50.904;6.922;2023-03-01T00:17:39;0.30;99.90
28524;DHT22;15734;50.904;6.922;2023-03-01T00:20:05;0.30;99.90
28524;DHT22;15734;50.904;6.922;2023-03-01T00:22:35;0.30;99.90
28524;DHT22;15734;50.904;6.922;2023-03-01T00:25:01;0.20;99.90
28524;DHT22;15734;50.904;6.922;2023-03-01T00:27:26;0.10;99.90
28524;DHT22;15734;50.904;6.922;2023-03-01T00:29:52;0.00;99.90
28524;DHT22;15734;50.904;6.922;2023-03-01T00:32:17;-0.10;99.90
28524;DHT22;15734;50.904;6.922;2023-03-01T00:34:42;-0.10;99.90
28524;DHT22;15734;50.904;6.922;2023-03-01T00:37:14;-0.20;99.90
28524;DHT22;15734;50.904;6.922;2023-03-01T00:39:39;-0.30;99.90
28524;DHT22;15734;50.904;6.922;2023-03-01T00:42:05;-0.40;99.90
28524;DHT22;15734;50.904;6.922;2023-03-01T00:44:30;-0.50;99.90
28524;DHT22;15734;50.904;6.922;2023-03-01T00:46:55;-0.50;99.90
28524;DHT22;15734;50.904;6.922;2023-03-01T00:49:21;-0.50;99.90
28524;DHT22;15734;50.904;6.922;2023-03-01T00:51:49;-0.60;99.90
28524;DHT22;15734;50.904;6.922;2023-03-01T00:54:14;-0.70;99.90
28524;DHT22;15734;50.904;6.922;2023-03-01T00:56:40;-0.70;99.90
28524;DHT22;15734;50.904;6.922;2023-03-01T00:59:05;-0.70;99.90
28524;DHT22;15734;50.904;6.922;2023-03-01T01:01:31;-0.80;99.90
28524;DHT22;15734;50.904;6.922;2023-03-01T01:03:57;-0.90;99.90
28524;DHT22;15734;50.904;6.922;2023-03-01T01:08:48;-1.00;99.90
28524;DHT22;15734;50.904;6.922;2023-03-01T01:11:14;-0.90;99.90
28524;DHT22;15734;50.904;6.922;2023-03-01T01:13:40;-0.80;99.90
28524;DHT22;15734;50.904;6.922;2023-03-01T01:16:06;-0.70;99.90
28524;DHT22;15734;50.904;6.922;2023-03-01T01:18:32;-0.80;99.90
28524;DHT22;15734;50.904;6.922;2023-03-01T01:20:57;-0.80;99.90
28524;DHT22;15734;50.904;6.922;2023-03-01T01:23:23;-0.90;99.90
28524;DHT22;15734;50.904;6.922;2023-03-01T01:25:48;-0.90;99.90
28524;DHT22;15734;50.904;6.922;2023-03-01T01:28:14;-0.90;99.90
28524;DHT22;15734;50.904;6.922;2023-03-01T01:30:39;-0.80;99.90
28524;DHT22;15734;50.904;6.922;2023-03-01T01:33:04;-0.80;99.90
28524;DHT22;15734;50.904;6.922;2023-03-01T01:35:30;-0.80;99.90
28524;DHT22;15734;50.904;6.922;2023-03-01T01:37:55;-0.70;99.90
28524;DHT22;15734;50.904;6.922;2023-03-01T01:40:21;-0.70;99.90
28524;DHT22;15734;50.904;6.922;2023-03-01T01:42:46;-0.70;99.90
28524;DHT22;15734;50.904;6.922;2023-03-01T01:45:24;-0.70;99.90
28524;DHT22;15734;50.904;6.922;2023-03-01T01:47:50;-0.80;99.90
28524;DHT22;15734;50.904;6.922;2023-03-01T01:50:16;-0.90;99.90
28524;DHT22;15734;50.904;6.922;2023-03-01T01:52:43;-0.90;99.90
28524;DHT22;15734;50.904;6.922;2023-03-01T01:55:16;-0.90;99.90
28524;DHT22;15734;50.904;6.922;2023-03-01T01:57:46;-0.80;99.90
28524;DHT22;15734;50.904;6.922;2023-03-01T02:00:13;-0.80;99.90
28524;DHT22;15734;50.904;6.922;2023-03-01T02:02:39;-0.70;99.90
28524;DHT22;15734;50.904;6.922;2023-03-01T02:05:09;-0.70;99.90
28524;DHT22;15734;50.904;6.922;2023-03-01T02:07:36;-0.70;99.90
28524;DHT22;15734;50.904;6.922;2023-03-01T02:10:03;-0.70;99.90
28524;DHT22;15734;50.904;6.922;2023-03-01T02:12:28;-0.80;99.90
28524;DHT22;15734;50.904;6.922;2023-03-01T02:14:54;-0.90;99.90
28524;DHT22;15734;50.904;6.922;2023-03-01T02:17:20;-1.00;99.90
28524;DHT22;15734;50.904;6.922;2023-03-01T02:22:22;-1.30;99.90
28524;DHT22;15734;50.904;6.922;2023-03-01T02:27:28;-1.30;99.90
28524;DHT22;15734;50.904;6.922;2023-03-01T02:29:57;-1.30;99.90
28524;DHT22;15734;50.904;6.922;2023-03-01T02:32:22;-1.30;99.90
28524;DHT22;15734;50.904;6.922;2023-03-01T02:34:54;-1.30;99.90
28524;DHT22;15734;50.904;6.922;2023-03-01T02:37:19;-1.40;99.90
28524;DHT22;15734;50.904;6.922;2023-03-01T02:39:59;-1.40;99.90
28524;DHT22;15734;50.904;6.922;2023-03-01T02:42:35;-1.50;99.90
28524;DHT22;15734;50.904;6.922;2023-03-01T02:45:02;-1.50;99.90
28524;DHT22;15734;50.904;6.922;2023-03-01T02:47:27;-1.50;99.90
28524;DHT22;15734;50.904;6.922;2023-03-01T02:49:53;-1.50;99.90
28524;DHT22;15734;50.904;6.922;2023-03-01T02:54:48;-1.30;99.90
28524;DHT22;15734;50.904;6.922;2023-03-01T02:57:16;-1.40;99.90
28524;DHT22;15734;50.904;6.922;2023-03-01T02:59:41;-1.40;99.90
28524;DHT22;15734;50.904;6.922;2023-03-01T03:02:17;-1.50;99.90
28524;DHT22;15734;50.904;6.922;2023-03-01T03:04:45;-1.60;99.90
28524;DHT22;15734;50.904;6.922;2023-03-01T03:07:10;-1.60;99.90
28524;DHT22;15734;50.904;6.922;2023-03-01T03:09:36;-1.60;99.90
28524;DHT22;15734;50.904;6.922;2023-03-01T03:12:01;-1.60;99.90
28524;DHT22;15734;50.904;6.922;2023-03-01T03:14:27;-1.60;99.90
28524;DHT22;15734;50.904;6.922;2023-03-01T03:16:52;-1.70;99.90
28524;DHT22;15734;50.904;6.922;2023-03-01T03:19:18;-1.80;99.90
28524;DHT22;15734;50.904;6.922;2023-03-01T03:21:44;-1.80;99.90
28524;DHT22;15734;50.904;6.922;2023-03-01T03:24:10;-1.80;99.90
28524;DHT22;15734;50.904;6.922;2023-03-01T03:26:35;-1.80;99.90
28524;DHT22;15734;50.904;6.922;2023-03-01T03:29:01;-1.90;99.90
28524;DHT22;15734;50.904;6.922;2023-03-01T03:31:27;-1.80;99.90
28524;DHT22;15734;50.904;6.922;2023-03-01T03:33:52;-1.80;99.90
28524;DHT22;15734;50.904;6.922;2023-03-01T03:36:19;-1.90;99.90
28524;DHT22;15734;50.904;6.922;2023-03-01T03:38:45;-1.80;99.90
28524;DHT22;15734;50.904;6.922;2023-03-01T03:41:11;-1.80;99.90
28524;DHT22;15734;50.904;6.922;2023-03-01T03:43:37;-1.80;99.90
28524;DHT22;15734;50.904;6.922;2023-03-01T03:46:03;-1.70;99.90
28524;DHT22;15734;50.904;6.922;2023-03-01T03:48:31;-1.70;99.90
28524;DHT22;15734;50.904;6.922;2023-03-01T03:50:58;-1.70;99.90
28524;DHT22;15734;50.904;6.922;2023-03-01T03:53:24;-1.60;99.90
28524;DHT22;15734;50.904;6.922;2023-03-01T03:55:49;-1.60;99.90
28524;DHT22;15734;50.904;6.922;2023-03-01T03:58:17;-1.60;99.90
28524;DHT22;15734;50.904;6.922;2023-03-01T04:00:45;-1.80;99.90
28524;DHT22;15734;50.904;6.922;2023-03-01T04:03:12;-1.80;99.90
28524;DHT22;15734;50.904;6.922;2023-03-01T04:05:38;-1.90;99.90
28524;DHT22;15734;50.904;6.922;2023-03-01T04:08:04;-2.00;99.90
28524;DHT22;15734;50.904;6.922;2023-03-01T04:10:39;-2.00;99.90
28524;DHT22;15734;50.904;6.922;2023-03-01T04:13:05;-2.00;99.90
28524;DHT22;15734;50.904;6.922;2023-03-01T04:15:31;-2.00;99.90
28524;DHT22;15734;50.904;6.922;2023-03-01T04:17:58;-2.00;99.90
28524;DHT22;15734;50.904;6.922;2023-03-01T04:20:25;-1.80;99.90
28524;DHT22;15734;50.904;6.922;2023-03-01T04:22:52;-1.80;99.90
28524;DHT22;15734;50.904;6.922;2023-03-01T04:25:18;-1.60;99.90
28524;DHT22;15734;50.904;6.922;2023-03-01T04:27:43;-1.60;99.90
28524;DHT22;15734;50.904;6.922;2023-03-01T04:30:09;-1.70;99.90
28524;DHT22;15734;50.904;6.922;2023-03-01T04:32:34;-1.70;99.90
28524;DHT22;15734;50.904;6.922;2023-03-01T04:35:00;-1.60;99.90
28524;DHT22;15734;50.904;6.922;2023-03-01T04:37:26;-1.60;99.90
28524;DHT22;15734;50.904;6.922;2023-03-01T04:39:51;-1.60;99.90
28524;DHT22;15734;50.904;6.922;2023-03-01T04:42:17;-1.70;99.90
28524;DHT22;15734;50.904;6.922;2023-03-01T04:44:43;-1.80;99.90
28524;DHT22;15734;50.904;6.922;2023-03-01T04:47:08;-1.90;99.90
28524;DHT22;15734;50.904;6.922;2023-03-01T04:49:34;-2.00;99.90
28524;DHT22;15734;50.904;6.922;2023-03-01T04:51:59;-2.10;99.90
28524;DHT22;15734;50.904;6.922;2023-03-01T04:54:27;-2.20;99.90
28524;DHT22;15734;50.904;6.922;2023-03-01T04:56:53;-2.30;99.90
28524;DHT22;15734;50.904;6.922;2023-03-01T04:59:19;-2.20;99.90
28524;DHT22;15734;50.904;6.922;2023-03-01T05:01:48;-2.10;99.90
28524;DHT22;15734;50.904;6.922;2023-03-01T05:04:13;-2.00;99.90
28524;DHT22;15734;50.904;6.922;2023-03-01T05:06:39;-1.90;99.90
28524;DHT22;15734;50.904;6.922;2023-03-01T05:09:04;-1.90;99.90
28524;DHT22;15734;50.904;6.922;2023-03-01T05:11:30;-2.00;99.90
28524;DHT22;15734;50.904;6.922;2023-03-01T05:13:59;-2.10;99.90
28524;DHT22;15734;50.904;6.922;2023-03-01T05:16:24;-2.10;99.90
28524;DHT22;15734;50.904;6.922;2023-03-01T05:18:50;-2.20;99.90
28524;DHT22;15734;50.904;6.922;2023-03-01T05:21:16;-2.20;99.90
28524;DHT22;15734;50.904;6.922;2023-03-01T05:23:41;-2.20;99.90
28524;DHT22;15734;50.904;6.922;2023-03-01T05:26:07;-2.30;99.90
28524;DHT22;15734;50.904;6.922;2023-03-01T05:28:33;-2.30;99.90
28524;DHT22;15734;50.904;6.922;2023-03-01T05:30:58;-2.40;99.90
28524;DHT22;15734;50.904;6.922;2023-03-01T05:33:24;-2.40;99.90
28524;DHT22;15734;50.904;6.922;2023-03-01T05:35:50;-2.40;99.90
28524;DHT22;15734;50.904;6.922;2023-03-01T05:38:17;-2.40;99.90
28524;DHT22;15734;50.904;6.922;2023-03-01T05:40:43;-2.30;99.90
28524;DHT22;15734;50.904;6.922;2023-03-01T05:43:09;-2.30;99.90
28524;DHT22;15734;50.904;6.922;2023-03-01T05:45:35;-2.30;99.90
28524;DHT22;15734;50.904;6.922;2023-03-01T05:48:01;-2.40;99.90
28524;DHT22;15734;50.904;6.922;2023-03-01T05:50:28;-2.40;99.90
28524;DHT22;15734;50.904;6.922;2023-03-01T05:53:01;-2.40;99.90
28524;DHT22;15734;50.904;6.922;2023-03-01T05:55:27;-2.50;99.90
28524;DHT22;15734;50.904;6.922;2023-03-01T05:57:52;-2.60;99.90
28524;DHT22;15734;50.904;6.922;2023-03-01T06:00:19;-2.60;99.90
28524;DHT22;15734;50.904;6.922;2023-03-01T06:02:45;-2.70;99.90
28524;DHT22;15734;50.904;6.922;2023-03-01T06:05:11;-2.70;99.90
28524;DHT22;15734;50.904;6.922;2023-03-01T06:07:37;-2.80;99.90
28524;DHT22;15734;50.904;6.922;2023-03-01T06:10:03;-2.80;99.90
28524;DHT22;15734;50.904;6.922;2023-03-01T06:12:30;-2.80;99.90
28524;DHT22;15734;50.904;6.922;2023-03-01T06:14:55;-2.80;99.90
28524;DHT22;15734;50.904;6.922;2023-03-01T06:17:21;-2.70;99.90
28524;DHT22;15734;50.904;6.922;2023-03-01T06:19:46;-2.70;99.90
28524;DHT22;15734;50.904;6.922;2023-03-01T06:22:12;-2.80;99.90
28524;DHT22;15734;50.904;6.922;2023-03-01T06:24:37;-2.80;99.90
28524;DHT22;15734;50.904;6.922;2023-03-01T06:27:03;-2.80;99.90
28524;DHT22;15734;50.904;6.922;2023-03-01T06:29:28;-2.80;99.90
28524;DHT22;15734;50.904;6.922;2023-03-01T06:31:54;-2.80;99.90
28524;DHT22;15734;50.904;6.922;2023-03-01T06:34:20;-2.90;99.90
28524;DHT22;15734;50.904;6.922;2023-03-01T06:36:47;-2.90;99.90
28524;DHT22;15734;50.904;6.922;2023-03-01T06:39:12;-2.90;99.90
28524;DHT22;15734;50.904;6.922;2023-03-01T06:41:37;-2.80;99.90
28524;DHT22;15734;50.904;6.922;2023-03-01T06:44:03;-2.80;99.90
28524;DHT22;15734;50.904;6.922;2023-03-01T06:46:29;-2.80;99.90
28524;DHT22;15734;50.904;6.922;2023-03-01T06:48:54;-2.80;99.90
28524;DHT22;15734;50.904;6.922;2023-03-01T06:51:20;-2.80;99.90
28524;DHT22;15734;50.904;6.922;2023-03-01T06:53:45;-2.70;99.90
28524;DHT22;15734;50.904;6.922;2023-03-01T06:56:11;-2.70;99.90
28524;DHT22;15734;50.904;6.922;2023-03-01T06:58:37;-2.60;99.90
28524;DHT22;15734;50.904;6.922;2023-03-01T07:01:06;-2.50;99.90
28524;DHT22;15734;50.904;6.922;2023-03-01T07:03:31;-2.50;99.90
28524;DHT22;15734;50.904;6.922;2023-03-01T07:05:57;-2.50;99.90
28524;DHT22;15734;50.904;6.922;2023-03-01T07:08:22;-2.40;99.90
28524;DHT22;15734;50.904;6.922;2023-03-01T07:10:48;-2.40;99.90
28524;DHT22;15734;50.904;6.922;2023-03-01T07:13:13;-2.50;99.90
28524;DHT22;15734;50.904;6.922;2023-03-01T07:15:39;-2.60;99.90
28524;DHT22;15734;50.904;6.922;2023-03-01T07:18:05;-2.50;99.90
28524;DHT22;15734;50.904;6.922;2023-03-01T07:20:30;-2.50;99.90
28524;DHT22;15734;50.904;6.922;2023-03-01T07:22:56;-2.40;99.90
28524;DHT22;15734;50.904;6.922;2023-03-01T07:25:23;-2.30;99.90
28524;DHT22;15734;50.904;6.922;2023-03-01T07:27:50;-2.30;99.90
28524;DHT22;15734;50.904;6.922;2023-03-01T07:30:16;-2.20;99.90
28524;DHT22;15734;50.904;6.922;2023-03-01T07:32:41;-2.10;99.90
28524;DHT22;15734;50.904;6.922;2023-03-01T07:35:07;-2.00;99.90
28524;DHT22;15734;50.904;6.922;2023-03-01T07:37:32;-1.90;99.90
28524;DHT22;15734;50.904;6.922;2023-03-01T07:39:58;-1.80;99.90
28524;DHT22;15734;50.904;6.922;2023-03-01T07:42:23;-1.70;99.90
28524;DHT22;15734;50.904;6.922;2023-03-01T07:44:49;-1.60;99.90
28524;DHT22;15734;50.904;6.922;2023-03-01T07:47:14;-1.50;99.90
28524;DHT22;15734;50.904;6.922;2023-03-01T07:49:40;-1.40;99.90
28524;DHT22;15734;50.904;6.922;2023-03-01T07:52:05;-1.30;99.90
28524;DHT22;15734;50.904;6.922;2023-03-01T07:54:30;-1.20;99.90
28524;DHT22;15734;50.904;6.922;2023-03-01T07:56:56;-1.10;99.90
28524;DHT22;15734;50.904;6.922;2023-03-01T07:59:22;-1.00;99.90
28524;DHT22;15734;50.904;6.922;2023-03-01T08:01:48;-0.90;99.90
28524;DHT22;15734;50.904;6.922;2023-03-01T08:04:14;-0.80;99.90
28524;DHT22;15734;50.904;6.922;2023-03-01T08:06:39;-0.70;99.90
28524;DHT22;15734;50.904;6.922;2023-03-01T08:09:05;-0.60;99.90
28524;DHT22;15734;50.904;6.922;2023-03-01T08:11:30;-0.50;99.90
28524;DHT22;15734;50.904;6.922;2023-03-01T08:13:56;-0.40;99.90
28524;DHT22;15734;50.904;6.922;2023-03-01T08:16:22;-0.30;99.90
28524;DHT22;15734;50.904;6.922;2023-03-01T08:18:48;-0.20;99.90
28524;DHT22;15734;50.904;6.922;2023-03-01T08:21:14;-0.10;99.90
28524;DHT22;15734;50.904;6.922;2023-03-01T08:23:40;0.00;99.90
28524;DHT22;15734;50.904;6.922;2023-03-01T08:26:09;0.10;99.90
28524;DHT22;15734;50.904;6.922;2023-03-01T08:28:35;0.20;99.90
28524;DHT22;15734;50.904;6.922;2023-03-01T08:31:01;0.30;99.90
28524;DHT22;15734;50.904;6.922;2023-03-01T08:33:27;0.40;99.90
28524;DHT22;15734;50.904;6.922;2023-03-01T08:35:52;0.50;99.90
28524;DHT22;15734;50.904;6.922;2023-03-01T08:38:18;0.60;99.90
28524;DHT22;15734;50.904;6.922;2023-03-01T08:40:43;0.70;99.90
28524;DHT22;15734;50.904;6.922;2023-03-01T08:43:08;0.80;99.90
28524;DHT22;15734;50.904;6.922;2023-03-01T08:45:34;0.80;99.90
28524;DHT22;15734;50.904;6.922;2023-03-01T08:47:59;0.90;99.90
28524;DHT22;15734;50.904;6.922;2023-03-01T08:50:25;1.00;99.90
28524;DHT22;15734;50.904;6.922;2023-03-01T08:52:50;1.10;99.90
28524;DHT22;15734;50.904;6.922;2023-03-01T08:55:16;1.20;99.90
28524;DHT22;15734;50.904;6.922;2023-03-01T08:57:42;1.30;99.90
28524;DHT22;15734;50.904;6.922;2023-03-01T09:00:08;1.40;99.90
28524;DHT22;15734;50.904;6.922;2023-03-01T09:02:34;1.60;99.90
28524;DHT22;15734;50.904;6.922;2023-03-01T09:04:59;1.70;99.90
28524;DHT22;15734;50.904;6.922;2023-03-01T09:07:26;1.80;99.90
28524;DHT22;15734;50.904;6.922;2023-03-01T09:09:53;2.00;99.90
28524;DHT22;15734;50.904;6.922;2023-03-01T09:12:19;2.00;99.90
28524;DHT22;15734;50.904;6.922;2023-03-01T09:14:44;2.10;99.90
28524;DHT22;15734;50.904;6.922;2023-03-01T09:17:10;2.20;99.90
28524;DHT22;15734;50.904;6.922;2023-03-01T09:19:35;2.40;99.90
28524;DHT22;15734;50.904;6.922;2023-03-01T09:22:02;2.50;99.90
28524;DHT22;15734;50.904;6.922;2023-03-01T09:24:27;2.70;99.90
28524;DHT22;15734;50.904;6.922;2023-03-01T09:26:54;2.80;99.90
28524;DHT22;15734;50.904;6.922;2023-03-01T09:29:21;3.00;99.90
28524;DHT22;15734;50.904;6.922;2023-03-01T09:31:47;3.20;99.90
28524;DHT22;15734;50.904;6.922;2023-03-01T09:34:13;3.30;99.90
28524;DHT22;15734;50.904;6.922;2023-03-01T09:36:41;3.40;99.90
28524;DHT22;15734;50.904;6.922;2023-03-01T09:39:06;3.60;99.90
28524;DHT22;15734;50.904;6.922;2023-03-01T09:44:44;3.80;99.90
28524;DHT22;15734;50.904;6.922;2023-03-01T09:47:12;4.10;99.90
28524;DHT22;15734;50.904;6.922;2023-03-01T09:49:40;4.30;99.90
28524;DHT22;15734;50.904;6.922;2023-03-01T09:52:29;4.40;99.90
28524;DHT22;15734;50.904;6.922;2023-03-01T09:54:56;4.40;99.90
28524;DHT22;15734;50.904;6.922;2023-03-01T09:57:30;4.60;99.90
28524;DHT22;15734;50.904;6.922;2023-03-01T10:00:00;4.70;99.90
28524;DHT22;15734;50.904;6.922;2023-03-01T10:02:42;4.70;99.90
28524;DHT22;15734;50.904;6.922;2023-03-01T10:05:26;4.90;99.90
28524;DHT22;15734;50.904;6.922;2023-03-01T10:08:02;5.00;99.90
28524;DHT22;15734;50.904;6.922;2023-03-01T10:12:56;5.20;99.90
28524;DHT22;15734;50.904;6.922;2023-03-01T10:15:25;5.40;99.90
28524;DHT22;15734;50.904;6.922;2023-03-01T10:17:57;5.30;99.90
28524;DHT22;15734;50.904;6.922;2023-03-01T10:20:28;5.20;99.90
28524;DHT22;15734;50.904;6.922;2023-03-01T10:22:55;5.50;99.90
28524;DHT22;15734;50.904;6.922;2023-03-01T10:25:30;5.70;99.90
28524;DHT22;15734;50.904;6.922;2023-03-01T10:28:02;5.80;99.90
28524;DHT22;15734;50.904;6.922;2023-03-01T10:30:37;6.00;99.90
28524;DHT22;15734;50.904;6.922;2023-03-01T10:35:51;5.80;99.90
28524;DHT22;15734;50.904;6.922;2023-03-01T10:38:17;5.90;99.90
28524;DHT22;15734;50.904;6.922;2023-03-01T10:40:51;6.00;99.90
28524;DHT22;15734;50.904;6.922;2023-03-01T10:43:17;6.10;99.90
28524;DHT22;15734;50.904;6.922;2023-03-01T10:45:42;5.90;99.90
28524;DHT22;15734;50.904;6.922;2023-03-01T10:50:33;5.70;99.90
28524;DHT22;15734;50.904;6.922;2023-03-01T10:53:01;5.80;99.90
28524;DHT22;15734;50.904;6.922;2023-03-01T10:55:34;6.10;99.90
28524;DHT22;15734;50.904;6.922;2023-03-01T10:58:06;6.20;99.90
28524;DHT22;15734;50.904;6.922;2023-03-01T11:00:31;6.20;99.90
28524;DHT22;15734;50.904;6.922;2023-03-01T11:05:24;6.40;99.90
28524;DHT22;15734;50.904;6.922;2023-03-01T11:07:57;6.20;99.90
28524;DHT22;15734;50.904;6.922;2023-03-01T11:10:26;6.10;99.90
28524;DHT22;15734;50.904;6.922;2023-03-01T11:12:52;6.30;99.90
28524;DHT22;15734;50.904;6.922;2023-03-01T11:15:27;6.40;99.90
28524;DHT22;15734;50.904;6.922;2023-03-01T11:17:53;6.50;99.90
28524;DHT22;15734;50.904;6.922;2023-03-01T11:20:24;6.80;99.90
28524;DHT22;15734;50.904;6.922;2023-03-01T11:25:16;7.00;99.90
28524;DHT22;15734;50.904;6.922;2023-03-01T11:27:43;7.20;99.90
28524;DHT22;15734;50.904;6.922;2023-03-01T11:30:15;7.40;99.90
28524;DHT22;15734;50.904;6.922;2023-03-01T11:32:47;7.50;99.90
28524;DHT22;15734;50.904;6.922;2023-03-01T11:35:22;7.30;99.90
28524;DHT22;15734;50.904;6.922;2023-03-01T11:40:32;7.40;99.90
28524;DHT22;15734;50.904;6.922;2023-03-01T11:45:42;8.00;99.90
28524;DHT22;15734;50.904;6.922;2023-03-01T11:48:17;8.40;99.90
28524;DHT22;15734;50.904;6.922;2023-03-01T11:50:47;8.40;99.90
28524;DHT22;15734;50.904;6.922;2023-03-01T11:58:27;9.10;99.90
28524;DHT22;15734;50.904;6.922;2023-03-01T12:06:14;9.10;99.90
28524;DHT22;15734;50.904;6.922;2023-03-01T12:14:10;9.50;98.10
28524;DHT22;15734;50.904;6.922;2023-03-01T12:19:34;9.30;97.70
28524;DHT22;15734;50.904;6.922;2023-03-01T12:27:16;9.50;97.30
28524;DHT22;15734;50.904;6.922;2023-03-01T12:29:53;9.40;97.00
28524;DHT22;15734;50.904;6.922;2023-03-01T12:32:40;9.50;97.20
28524;DHT22;15734;50.904;6.922;2023-03-01T12:37:54;9.20;96.40
28524;DHT22;15734;50.904;6.922;2023-03-01T12:40:25;9.00;96.40
28524;DHT22;15734;50.904;6.922;2023-03-01T12:50:21;9.30;96.40
28524;DHT22;15734;50.904;6.922;2023-03-01T12:52:52;9.20;96.60
28524;DHT22;15734;50.904;6.922;2023-03-01T12:55:26;9.30;96.40
28524;DHT22;15734;50.904;6.922;2023-03-01T12:57:57;9.20;95.80
28524;DHT22;15734;50.904;6.922;2023-03-01T13:03:19;9.70;96.30
28524;DHT22;15734;50.904;6.922;2023-03-01T13:08:27;10.00;95.10
28524;DHT22;15734;50.904;6.922;2023-03-01T13:10:58;10.10;95.00
28524;DHT22;15734;50.904;6.922;2023-03-01T13:13:26;10.20;94.50
28524;DHT22;15734;50.904;6.922;2023-03-01T13:15:51;10.50;94.20
28524;DHT22;15734;50.904;6.922;2023-03-01T13:23:23;10.70;94.50
28524;DHT22;15734;50.904;6.922;2023-03-01T13:31:10;10.70;92.50
28524;DHT22;15734;50.904;6.922;2023-03-01T13:33:40;10.60;92.50
28524;DHT22;15734;50.904;6.922;2023-03-01T13:36:05;10.70;92.50
28524;DHT22;15734;50.904;6.922;2023-03-01T13:41:46;10.90;92.10
28524;DHT22;15734;50.904;6.922;2023-03-01T13:44:12;11.10;92.20
28524;DHT22;15734;50.904;6.922;2023-03-01T13:46:44;11.00;91.10
28524;DHT22;15734;50.904;6.922;2023-03-01T13:49:11;11.00;91.60
28524;DHT22;15734;50.904;6.922;2023-03-01T13:51:39;11.00;90.80
28524;DHT22;15734;50.904;6.922;2023-03-01T13:54:04;11.20;91.60
28524;DHT22;15734;50.904;6.922;2023-03-01T13:56:34;11.60;90.90
28524;DHT22;15734;50.904;6.922;2023-03-01T13:59:01;11.90;90.70
28524;DHT22;15734;50.904;6.922;2023-03-01T14:01:31;12.20;90.00
28524;DHT22;15734;50.904;6.922;2023-03-01T14:03:57;12.20;89.10
28524;DHT22;15734;50.904;6.922;2023-03-01T14:06:24;12.00;88.00
28524;DHT22;15734;50.904;6.922;2023-03-01T14:08:52;11.50;88.90
28524;DHT22;15734;50.904;6.922;2023-03-01T14:11:20;11.50;88.90
28524;DHT22;15734;50.904;6.922;2023-03-01T14:16:42;11.50;87.20
28524;DHT22;15734;50.904;6.922;2023-03-01T14:19:19;11.50;87.90
28524;DHT22;15734;50.904;6.922;2023-03-01T14:21:46;11.80;87.70
28524;DHT22;15734;50.904;6.922;2023-03-01T14:24:16;11.70;86.70
28524;DHT22;15734;50.904;6.922;2023-03-01T14:26:42;11.80;86.50
28524;DHT22;15734;50.904;6.922;2023-03-01T14:29:22;11.80;86.70
28524;DHT22;15734;50.904;6.922;2023-03-01T14:31:48;11.60;85.90
28524;DHT22;15734;50.904;6.922;2023-03-01T14:34:21;11.30;85.80
28524;DHT22;15734;50.904;6.922;2023-03-01T14:36:47;11.10;86.50
28524;DHT22;15734;50.904;6.922;2023-03-01T14:39:16;11.20;86.50
28524;DHT22;15734;50.904;6.922;2023-03-01T14:41:41;11.10;87.10
28524;DHT22;15734;50.904;6.922;2023-03-01T14:44:07;11.10;86.20
28524;DHT22;15734;50.904;6.922;2023-03-01T14:46:38;11.10;85.90
28524;DHT22;15734;50.904;6.922;2023-03-01T14:49:12;10.80;85.40
28524;DHT22;15734;50.904;6.922;2023-03-01T14:51:39;10.50;86.00
28524;DHT22;15734;50.904;6.922;2023-03-01T14:56:46;10.30;89.40
28524;DHT22;15734;50.904;6.922;2023-03-01T14:59:11;10.20;90.30
28524;DHT22;15734;50.904;6.922;2023-03-01T15:01:38;10.20;91.10
28524;DHT22;15734;50.904;6.922;2023-03-01T15:04:04;10.20;90.70
28524;DHT22;15734;50.904;6.922;2023-03-01T15:06:30;10.20;91.40
28524;DHT22;15734;50.904;6.922;2023-03-01T15:08:55;10.10;92.30
28524;DHT22;15734;50.904;6.922;2023-03-01T15:11:23;10.20;92.30
28524;DHT22;15734;50.904;6.922;2023-03-01T15:13:50;10.00;92.50
28524;DHT22;15734;50.904;6.922;2023-03-01T15:16:17;9.90;94.00
28524;DHT22;15734;50.904;6.922;2023-03-01T15:18:51;9.80;93.50
28524;DHT22;15734;50.904;6.922;2023-03-01T15:23:47;9.60;94.90
28524;DHT22;15734;50.904;6.922;2023-03-01T15:26:23;9.60;94.50
28524;DHT22;15734;50.904;6.922;2023-03-01T15:28:49;9.60;94.10
28524;DHT22;15734;50.904;6.922;2023-03-01T15:31:23;9.50;93.90
28524;DHT22;15734;50.904;6.922;2023-03-01T15:33:48;9.60;93.90
28524;DHT22;15734;50.904;6.922;2023-03-01T15:36:35;9.60;93.70
28524;DHT22;15734;50.904;6.922;2023-03-01T15:39:01;9.60;93.90
28524;DHT22;15734;50.904;6.922;2023-03-01T15:41:31;9.60;94.10
28524;DHT22;15734;50.904;6.922;2023-03-01T15:43:57;9.70;94.20
28524;DHT22;15734;50.904;6.922;2023-03-01T15:46:31;9.60;94.20
28524;DHT22;15734;50.904;6.922;2023-03-01T15:48:58;9.50;94.50
28524;DHT22;15734;50.904;6.922;2023-03-01T15:51:34;9.50;95.20
28524;DHT22;15734;50.904;6.922;2023-03-01T15:54:22;9.40;94.60
28524;DHT22;15734;50.904;6.922;2023-03-01T15:56:46;9.20;95.20
28524;DHT22;15734;50.904;6.922;2023-03-01T15:59:11;9.10;95.10
28524;DHT22;15734;50.904;6.922;2023-03-01T16:01:38;9.00;95.00
28524;DHT22;15734;50.904;6.922;2023-03-01T16:04:04;9.00;95.20
28524;DHT22;15734;50.904;6.922;2023-03-01T16:06:29;9.00;95.90
28524;DHT22;15734;50.904;6.922;2023-03-01T16:08:55;9.00;95.90
28524;DHT22;15734;50.904;6.922;2023-03-01T16:11:21;9.00;95.30
28524;DHT22;15734;50.904;6.922;2023-03-01T16:13:47;8.90;95.50
28524;DHT22;15734;50.904;6.922;2023-03-01T16:16:13;8.80;95.50
28524;DHT22;15734;50.904;6.922;2023-03-01T16:18:44;8.70;96.00
28524;DHT22;15734;50.904;6.922;2023-03-01T16:21:11;8.60;95.40
28524;DHT22;15734;50.904;6.922;2023-03-01T16:23:37;8.50;95.70
28524;DHT22;15734;50.904;6.922;2023-03-01T16:26:02;8.50;95.60
28524;DHT22;15734;50.904;6.922;2023-03-01T16:28:28;8.40;96.00
28524;DHT22;15734;50.904;6.922;2023-03-01T16:30:53;8.30;95.70
28524;DHT22;15734;50.904;6.922;2023-03-01T16:33:19;8.20;95.60
28524;DHT22;15734;50.904;6.922;2023-03-01T16:35:45;8.20;95.80
28524;DHT22;15734;50.904;6.922;2023-03-01T16:38:10;8.10;95.80
28524;DHT22;15734;50.904;6.922;2023-03-01T16:40:35;8.10;95.90
28524;DHT22;15734;50.904;6.922;2023-03-01T16:43:01;8.00;96.50
28524;DHT22;15734;50.904;6.922;2023-03-01T16:45:27;8.00;96.30
28524;DHT22;15734;50.904;6.922;2023-03-01T16:47:57;8.00;96.30
28524;DHT22;15734;50.904;6.922;2023-03-01T16:50:23;7.90;96.60
28524;DHT22;15734;50.904;6.922;2023-03-01T16:52:48;7.80;96.40
28524;DHT22;15734;50.904;6.922;2023-03-01T16:55:14;7.80;96.50
28524;DHT22;15734;50.904;6.922;2023-03-01T16:57:39;7.70;96.40
28524;DHT22;15734;50.904;6.922;2023-03-01T17:00:06;7.70;96.80
28524;DHT22;15734;50.904;6.922;2023-03-01T17:02:33;7.60;96.90
28524;DHT22;15734;50.904;6.922;2023-03-01T17:04:59;7.60;96.70
28524;DHT22;15734;50.904;6.922;2023-03-01T17:07:24;7.50;96.90
28524;DHT22;15734;50.904;6.922;2023-03-01T17:09:50;7.50;96.90